Walter, Linda
United StatesWomanBorn 19512007 – 2026Runner id 57080
Events
54
53 race dates
Best pace
8.857
km/h · 2008
Best finish
10th
of 67 · 2011
Distance raced
3,832
km · splits not double-counted
Pace over time
km/h · higher is faster
Pace over time: 54 races from 2007 to 2026, ranging from 3.35 to 10.94 kilometres per hour, where higher is faster. A second, age-graded series is drawn above it; the gap between the two is the age credit.
- Actual pace
- Age-graded pace
Results
| Date | Event | Distance | Result | Pace km/h | Placing |
|---|---|---|---|---|---|
| 2007-06-09 | Lake Youngs UltraUnited States | 28.8mi | 5:28:00 h | 8.478 | 45/62 |
| 2007-12-22 | 50km | 5:52:07 h | 8.520 | 35/42 | |
| 2008-01-26 | Pigtails Run 50KUnited States | 50km | 5:40:39 h | 8.807 | 34/49 |
| 2008-02-24 | Cedar River Yours TrulyUnited States | 50km | 5:43:20 h | 8.738 | 9/15 |
| 2008-04-13 | 50mi | 10:50:06 h | 7.427 | 48/50 | |
| 2008-06-14 | Lake Youngs UltraUnited States | 28.8mi | 5:14:00 h | 8.857 | 59/95 |
| 2008-07-26 | 50mi | 13:12:58 h | 6.089 | 196/202 | |
| 2008-10-19 | 50km | 6:19:00 h | 7.916 | 9/19 | |
| 2008-10-20 | Baker Lake 50K Ultra Trail RunUnited States | 50km | 6:37:31 h | 7.547 | 48/86 |
| 2008-11-01 | Ron Herzog 50KUnited States | 50km | 6:02:00 h | 8.287 | 19/30 |
| 2009-01-24 | Pigtails Run 50KUnited States | 50km | 5:47:00 h | 8.646 | 36/49 |
| 2009-01-25 | Cedar River Yours TrulyUnited States | 50km | 6:15:00 h | 8.000 | 7/8 |
| 2009-03-21 | Pacific Rim One DayUnited States | 24h | 120.701 km | 5.029 | 13/49 |
| 2009-05-16 | Watershed Preserve 12 Hr Trail RaceUnited States | 12h | 60.559 km | 5.047 | 42/66 |
| 2009-06-06 | Blanchard Mountain Trail UltraUnited States | 50km | 8:14:00 h | 6.073 | 15/17 |
| 2009-07-25 | 50mi | 13:33:03 h | 5.938 | 164/166 | |
| 2010-03-20 | 24h | 128.747 km | 5.364 | 17/73 | |
| 2010-04-09 | 50mi | 13:22:00 h | 6.020 | 25/26 | |
| 2010-05-15 | 12h | 60.559 km | 5.047 | 63/80 | |
| 2010-08-15 | 12h | 76.025 km | 6.335 | 17/40 | |
| 2010-09-05 | 50km | 6:47:53 h | 7.355 | 11/13 | |
| 2010-10-02 | Baker Lake 50K Ultra Trail RunUnited States | 50km | 7:11:00 h | 6.961 | 81/115 |
| 2010-10-23 | 100mi | 27:50:43 h | 5.780 | 97/137 | |
| 2011-01-22 | Pigtails Run 50KUnited States | 50km | 6:06:12 h | 8.192 | 64/84 |
| 2011-01-29 | Cedar River Yours TrulyUnited States | 50km | 5:48:11 h | 8.616 | 12/16 |
| 2011-02-27 | Cedar River Yours TrulyUnited States | 50km | 5:50:05 h | 8.569 | 6/10 |
| 2011-03-19 | 24h | 146.450 km | 6.102 | 10/67 | |
| 2011-04-16 | 50mi | 13:29:00 h | 5.968 | 17/25 | |
| 2011-05-14 | 12h | 51.901 km | 4.325 | 61/68 | |
| 2011-06-04 | 50km | 6:40:13 h | 7.496 | 21/26 | |
| 2011-06-11 | 28.8mi | 5:43:20 h | 8.100 | 39/53 | |
| 2011-08-14 | 12h | 85.835 km | 7.153 | 23/70 | |
| 2012-01-28 | Lake Youngs Nuts RunUnited States | 50km | 6:11:22 h | 8.078 | 46/57 |
| 2012-03-17 | 24h | 80.467 km | 3.353 | 35/65 | |
| 2012-03-24 | Dizzy Daze 100 kmUnited States | 100km | 13:37:00 h | 7.344 | 5/8 |
| 2012-05-05 | 50km | 6:14:14 h | 8.016 | 21/21 | |
| 2012-05-24 | Pigtails Challenge 100 MileUnited States | 100mi | 26:30:00 h | 6.073 | 21/36 |
| 2012-08-12 | 12h | 71.121 km | 5.927 | 24/74 | |
| 2012-09-23 | Sri Chinmoy 7 Hour RaceUnited States | 7h | 53.913 km | 7.702 | 4/7 |
| 2013-03-16 | 24h | 80.467 km | 3.353 | 24/51 | |
| 2013-03-23 | 12h | 87.548 km | 7.296 | 14/74 | |
| 2013-04-28 | Mt. Si 50 Miles Ultra RunUnited States | 50mi | 10:04:19 h | 7.989 | 28/36 |
| 2013-05-25 | 100mi | 26:24:00 h | 6.096 | 24/36 | |
| 2013-08-11 | Transcendence 12 Hour Ultra RunUnited States | 12h | 85.835 km | 7.153 | 9/60 |
| 2013-10-05 | 50km | 8:23:15 h | 5.961 | 157/188 | |
| 2014-03-22 | 12h | 72.098 km | 6.008 | 25/98 | |
| 2014-06-15 | 28.8mi | 6:12:13 h | 7.471 | 18/29 | |
| 2014-08-10 | 12h | 73.574 km | 6.131 | 10/30 | |
| 2015-01-31 | 50km | 6:26:31 h | 7.762 | 18/25 | |
| 2015-01-31 | Lake Youngs Nuts RunUnited States | 50km | 6:15:18 h | 7.994 | 37/47 |
Showing 1–50 of 54